Airfield :
LOGIN :

Register | Disclaimer

   EN    FR    IT 

 










Legend :    VFR   Marginal VFR   IFR   Intensive IFR   Very Intensive IFR
Visi :
Ceiling :
>= 8 km
>= 3000ft
5 to 8 km
1000 to 3000 ft
1500m to 5 km
500 to 1000 ft
800 to 1500m
200 to 500 ft
< 800m
< 200 ft
Symbols :   Thunderstorms  Fog  Heavy snow  Heavy precipitations  Wind > 20 kt
SIGMETs :     Misc.  Thunderstorms  Icing  Turbulence  Mountain Waves  Volcanic Ashes






- Airport Elevation : 2096 ft
- IATA code : AUR


LFLW - Aurillac

CURRENT METAR :
  • 140700Z AUTO 28009KT 240V310 9999 // ////// 10/09 Q1008

EXPIRED METARs :
  • 140630Z AUTO 28005KT 230V320 7000 // ////// 10/09 Q1007
  • 140600Z AUTO 28009KT 250V310 9999 ////// 10/09 Q1007
  • 140530Z AUTO 28009KT 240V300 9999 DZ ////// 10/09 Q1007
  • 140500Z AUTO 28011KT 260V320 9999 // ////// 10/09 Q1006
  • 140430Z AUTO 27013G24KT 230V300 7000 // ////// 10/09 Q1005

TAF TAF LFLW
Valid from the 14 at 06:00 until the 14 at 15:00 UTC


140500Z 1406/1415 27012KT 9999 BKN012
TEMPO 1406/1415 4000 -RADZ BKN004
PROB30
TEMPO 1406/1409 28017G27KT
PROB40
TEMPO 1408/1410 2000 RA BKN005



MET'MAP, your aeronautical weather chart ! - Copyright ORBIFLY December 2007 - Disclaimer

ORBIFLY MET'MAP TEAM :

Programming & Development : Alexandra Zaïnal
Concept & original design : Baudouin d'Aumeries
Assistance for programming : Marc-Olivier Méhu
Technical & hardware support : Manuel Goepfert

Contact : metmap@orbifly.com




SOURCES & CREDITS :

   NOAA